createdAt,value
2019-03-28T00:02:00.361Z,88.60
2019-03-28T00:04:28.937Z,88.70
2019-03-28T00:06:57.190Z,88.70
2019-03-28T00:09:25.244Z,88.40
2019-03-28T00:11:53.434Z,88.40
2019-03-28T00:14:22.980Z,88.60
2019-03-28T00:16:51.480Z,88.50
2019-03-28T00:19:19.284Z,88.30
2019-03-28T00:21:47.511Z,88.10
2019-03-28T00:24:24.104Z,88.40
2019-03-28T00:26:52.493Z,88.80
2019-03-28T00:29:20.720Z,89.00
2019-03-28T00:31:49.305Z,89.10
2019-03-28T00:34:17.196Z,89.50
2019-03-28T00:36:45.351Z,89.60
2019-03-28T00:39:12.889Z,89.60
2019-03-28T00:41:40.965Z,89.60
2019-03-28T00:44:08.815Z,89.50
2019-03-28T00:46:37.331Z,89.40
2019-03-28T00:49:05.427Z,89.50
2019-03-28T00:51:33.786Z,89.40
2019-03-28T00:54:02.101Z,89.40
2019-03-28T00:56:38.065Z,89.40
2019-03-28T00:59:00.327Z,89.50
2019-03-28T01:01:27.936Z,89.80
2019-03-28T01:03:55.952Z,89.90
2019-03-28T01:06:24.019Z,90.10
2019-03-28T01:08:52.006Z,89.90
2019-03-28T01:11:35.996Z,89.70
2019-03-28T01:14:03.656Z,89.50
2019-03-28T01:16:31.524Z,89.50
2019-03-28T01:18:59.907Z,89.50
2019-03-28T01:21:37.994Z,89.40
2019-03-28T01:24:05.771Z,89.60
2019-03-28T01:26:33.313Z,89.70
2019-03-28T01:29:01.344Z,89.80
2019-03-28T01:31:29.487Z,89.80
2019-03-28T01:33:57.894Z,89.80
2019-03-28T01:36:25.822Z,89.90
2019-03-28T01:38:53.939Z,89.80
2019-03-28T01:41:21.802Z,89.60
2019-03-28T01:43:49.688Z,89.40
2019-03-28T01:46:20.652Z,89.60
2019-03-28T01:48:48.570Z,89.80
2019-03-28T01:51:16.263Z,89.90
2019-03-28T01:53:43.807Z,90.00
2019-03-28T01:56:15.349Z,90.00
2019-03-28T01:58:43.427Z,90.50
2019-03-28T02:01:11.573Z,90.60
2019-03-28T02:03:39.660Z,90.50
2019-03-28T02:06:07.787Z,90.20
2019-03-28T02:08:44.554Z,89.90
2019-03-28T02:11:12.173Z,89.60
2019-03-28T02:13:40.031Z,89.40
2019-03-28T02:16:08.150Z,89.20
2019-03-28T02:18:35.981Z,89.00
2019-03-28T02:21:03.981Z,88.80
2019-03-28T02:23:31.701Z,88.90
2019-03-28T02:25:59.790Z,88.90
2019-03-28T02:28:29.776Z,89.00
2019-03-28T02:30:57.915Z,89.20
2019-03-28T02:33:25.730Z,89.20
2019-03-28T02:35:53.785Z,89.10
2019-03-28T02:38:21.651Z,89.10
2019-03-28T02:40:49.715Z,89.20
2019-03-28T02:43:19.792Z,89.30
2019-03-28T02:45:48.409Z,89.40
2019-03-28T02:48:16.065Z,89.40
2019-03-28T02:50:44.143Z,89.40
2019-03-28T02:53:12.008Z,89.50
2019-03-28T02:55:40.081Z,89.50
2019-03-28T02:58:07.982Z,89.30
2019-03-28T03:00:36.742Z,89.40
2019-03-28T03:03:04.898Z,89.40
2019-03-28T03:05:32.906Z,89.70
2019-03-28T03:08:00.779Z,89.90
2019-03-28T03:10:27.390Z,89.90
2019-03-28T03:12:55.185Z,89.90
2019-03-28T03:15:23.199Z,90.20
2019-03-28T03:17:51.131Z,90.00
2019-03-28T03:20:18.988Z,89.50
2019-03-28T03:22:47.033Z,89.50
2019-03-28T03:25:14.699Z,89.70
2019-03-28T03:27:57.205Z,89.60
2019-03-28T03:30:13.148Z,89.90
2019-03-28T03:32:41.124Z,89.80
2019-03-28T03:35:09.002Z,90.40
2019-03-28T03:37:37.105Z,90.10
2019-03-28T03:40:07.877Z,90.80
2019-03-28T03:42:35.631Z,91.40
2019-03-28T03:45:05.996Z,91.20
2019-03-28T03:47:34.507Z,91.50
2019-03-28T03:50:03.235Z,91.70
2019-03-28T03:52:30.949Z,92.20
2019-03-28T03:54:59.127Z,92.90
2019-03-28T03:57:26.988Z,93.00
2019-03-28T03:59:55.319Z,93.10
2019-03-28T04:02:23.652Z,93.30
2019-03-28T04:04:51.413Z,93.00
2019-03-28T04:07:19.330Z,92.70
2019-03-28T04:09:47.297Z,92.00
2019-03-28T04:12:15.121Z,91.70
2019-03-28T04:14:43.652Z,92.00
2019-03-28T04:17:11.605Z,91.50
2019-03-28T04:19:39.712Z,91.30
2019-03-28T04:22:07.770Z,91.10
2019-03-28T04:24:35.654Z,91.20
2019-03-28T04:27:03.625Z,90.60
2019-03-28T04:29:31.394Z,89.80
2019-03-28T04:31:59.218Z,89.00
2019-03-28T04:34:27.150Z,88.60
2019-03-28T04:36:57.923Z,88.40
2019-03-28T04:39:26.472Z,88.40
2019-03-28T04:41:53.968Z,88.10
2019-03-28T04:44:22.152Z,87.80
2019-03-28T04:46:50.383Z,87.40
2019-03-28T04:49:18.650Z,87.50
2019-03-28T04:51:47.911Z,87.50
2019-03-28T04:54:15.867Z,87.40
2019-03-28T04:56:43.986Z,87.30
2019-03-28T04:59:12.204Z,87.40
2019-03-28T05:01:40.375Z,88.30
2019-03-28T05:04:08.311Z,88.90
2019-03-28T05:06:38.125Z,88.50
2019-03-28T05:09:06.150Z,88.60
2019-03-28T05:11:33.631Z,88.90
2019-03-28T05:14:01.346Z,88.30
2019-03-28T05:16:29.168Z,87.60
2019-03-28T05:18:57.547Z,87.30
2019-03-28T05:21:25.599Z,87.20
2019-03-28T05:23:53.387Z,87.70
2019-03-28T05:26:21.018Z,87.60
2019-03-28T05:28:57.527Z,88.00
2019-03-28T05:31:18.145Z,88.50
2019-03-28T05:33:45.599Z,89.00
2019-03-28T05:36:15.363Z,88.80
2019-03-28T05:38:45.843Z,89.10
2019-03-28T05:41:17.296Z,89.30
2019-03-28T05:43:45.538Z,89.70
2019-03-28T05:46:17.362Z,89.40
2019-03-28T05:48:45.347Z,89.50
2019-03-28T05:51:12.956Z,89.70
2019-03-28T05:53:43.988Z,89.40
2019-03-28T05:56:12.531Z,88.60
2019-03-28T05:58:40.376Z,87.60
2019-03-28T06:01:08.375Z,87.60
2019-03-28T06:03:36.739Z,87.30
2019-03-28T06:06:05.096Z,87.70
2019-03-28T06:08:32.762Z,87.70
2019-03-28T06:11:01.211Z,87.10
2019-03-28T06:13:29.945Z,87.00
2019-03-28T06:15:57.865Z,86.50
2019-03-28T06:18:26.104Z,85.90
2019-03-28T06:20:55.390Z,84.90
2019-03-28T06:23:23.905Z,85.00
2019-03-28T06:25:52.910Z,84.60
2019-03-28T06:28:20.892Z,85.00
2019-03-28T06:31:00.842Z,83.90
2019-03-28T06:33:42.193Z,83.30
2019-03-28T06:36:22.093Z,81.90
2019-03-28T06:39:02.417Z,80.10
2019-03-28T06:41:44.338Z,79.20
2019-03-28T06:44:25.531Z,79.10
2019-03-28T06:47:05.153Z,78.20
2019-03-28T06:49:45.380Z,77.60
2019-03-28T06:52:25.404Z,76.80
2019-03-28T06:55:05.225Z,76.50
2019-03-28T06:57:45.332Z,76.70
2019-03-28T07:00:25.256Z,76.80
2019-03-28T07:03:05.237Z,77.20
2019-03-28T07:05:45.461Z,77.30
2019-03-28T07:08:25.459Z,76.70
2019-03-28T07:11:05.285Z,76.60
2019-03-28T07:13:45.713Z,76.80
2019-03-28T07:16:25.465Z,75.40
2019-03-28T07:19:05.355Z,74.60
2019-03-28T07:21:45.641Z,73.50
2019-03-28T07:24:25.272Z,74.20
2019-03-28T07:27:10.295Z,73.20
2019-03-28T07:29:53.093Z,72.90
2019-03-28T07:32:33.218Z,72.90
2019-03-28T07:35:12.995Z,72.60
2019-03-28T07:37:53.390Z,70.50
2019-03-28T07:40:33.649Z,69.10
2019-03-28T07:43:13.652Z,68.50
2019-03-28T07:45:53.781Z,65.70
2019-03-28T07:48:33.585Z,65.10
2019-03-28T07:51:13.474Z,64.30
2019-03-28T07:53:53.783Z,64.00
2019-03-28T07:56:34.006Z,64.40
2019-03-28T07:59:13.599Z,60.90
2019-03-28T08:01:53.620Z,60.90
2019-03-28T08:04:33.824Z,61.00
2019-03-28T08:07:13.676Z,61.80
2019-03-28T08:09:53.756Z,58.40
2019-03-28T08:12:33.892Z,59.60
2019-03-28T08:15:14.116Z,57.30
2019-03-28T08:17:54.134Z,56.40
2019-03-28T08:20:34.324Z,55.30
2019-03-28T08:23:14.526Z,53.40
2019-03-28T08:25:54.112Z,55.80
2019-03-28T08:28:34.041Z,55.70
2019-03-28T08:31:14.927Z,55.00
2019-03-28T08:33:55.355Z,55.60
2019-03-28T08:36:35.145Z,56.10
2019-03-28T08:39:16.387Z,55.50
2019-03-28T08:41:56.811Z,54.40
2019-03-28T08:44:24.822Z,54.40
2019-03-28T08:47:11.974Z,53.30
2019-03-28T08:49:52.014Z,53.10
2019-03-28T08:52:31.929Z,52.80
2019-03-28T08:55:12.073Z,51.80
2019-03-28T08:57:52.197Z,51.60
2019-03-28T09:00:50.440Z,52.90
2019-03-28T09:03:15.281Z,51.50
2019-03-28T09:05:59.046Z,49.80
2019-03-28T09:08:39.241Z,49.30
2019-03-28T09:11:21.360Z,48.90
2019-03-28T09:14:00.706Z,49.80
2019-03-28T09:19:21.816Z,49.60
2019-03-28T09:22:03.816Z,48.40
2019-03-28T09:24:50.397Z,48.10
2019-03-28T09:27:30.055Z,48.70
2019-03-28T09:30:10.080Z,49.10
2019-03-28T09:32:50.020Z,49.30
2019-03-28T09:35:30.202Z,48.60
2019-03-28T09:38:10.458Z,47.20
2019-03-28T09:40:54.929Z,45.80
2019-03-28T09:43:34.501Z,43.90
2019-03-28T09:46:14.798Z,44.90
2019-03-28T09:48:55.141Z,45.40
2019-03-28T09:51:35.408Z,44.60
2019-03-28T09:54:16.055Z,45.10
2019-03-28T09:56:56.282Z,43.90
2019-03-28T09:59:36.781Z,42.00
2019-03-28T10:02:16.344Z,41.30
2019-03-28T10:04:56.393Z,42.20
2019-03-28T10:07:38.523Z,42.40
2019-03-28T10:10:18.544Z,42.60
2019-03-28T10:12:58.683Z,42.70
2019-03-28T10:15:38.369Z,43.10
2019-03-28T10:18:19.260Z,44.70
2019-03-28T10:21:00.906Z,46.10
2019-03-28T10:23:42.282Z,44.20
2019-03-28T10:26:22.181Z,42.00
2019-03-28T10:29:01.895Z,40.10
2019-03-28T10:31:43.845Z,39.80
2019-03-28T10:34:24.387Z,39.70
2019-03-28T10:37:04.167Z,39.10
2019-03-28T10:39:44.472Z,37.90
2019-03-28T10:42:24.408Z,39.00
2019-03-28T10:45:04.382Z,39.20
2019-03-28T10:47:45.421Z,37.90
2019-03-28T10:50:39.941Z,37.70
2019-03-28T10:53:07.800Z,37.50
2019-03-28T10:55:48.190Z,37.30
2019-03-28T10:58:28.128Z,37.40
2019-03-28T11:00:56.509Z,37.70
2019-03-28T11:03:44.908Z,37.40
2019-03-28T11:06:26.888Z,36.30
2019-03-28T11:09:06.935Z,36.70
2019-03-28T11:11:47.351Z,38.70
2019-03-28T11:14:28.218Z,39.20
2019-03-28T11:17:07.988Z,38.70
2019-03-28T11:19:48.784Z,38.30
2019-03-28T11:22:28.243Z,36.50
2019-03-28T11:25:09.038Z,35.70
2019-03-28T11:27:49.543Z,36.10
2019-03-28T11:30:29.516Z,35.60
2019-03-28T11:35:50.735Z,34.70
2019-03-28T11:38:30.492Z,35.50
2019-03-28T11:41:12.002Z,33.40
2019-03-28T11:43:51.816Z,34.40
2019-03-28T11:46:31.909Z,33.70
2019-03-28T11:49:12.012Z,31.20
2019-03-28T11:51:52.052Z,32.40
2019-03-28T11:54:32.376Z,33.80
2019-03-28T11:57:15.561Z,34.20
2019-03-28T11:59:54.034Z,34.50
2019-03-28T12:02:34.121Z,34.70
2019-03-28T12:05:14.211Z,34.10
2019-03-28T12:07:54.272Z,35.90
2019-03-28T12:10:35.315Z,34.70
2019-03-28T12:13:15.425Z,34.20
2019-03-28T12:15:56.542Z,32.60
2019-03-28T12:18:36.110Z,32.40
2019-03-28T12:24:05.663Z,33.80
2019-03-28T12:26:45.414Z,33.20
2019-03-28T12:29:25.193Z,32.50
2019-03-28T12:32:13.955Z,33.10
2019-03-28T12:34:46.761Z,32.20
2019-03-28T12:37:29.555Z,30.60
2019-03-28T12:40:09.508Z,30.90
2019-03-28T12:42:50.034Z,30.80
2019-03-28T12:45:30.419Z,32.60
2019-03-28T12:48:10.089Z,33.30
2019-03-28T12:50:58.695Z,32.20
2019-03-28T12:53:33.436Z,32.60
2019-03-28T12:56:13.357Z,34.00
2019-03-28T12:58:53.615Z,32.50
2019-03-28T13:01:34.030Z,33.80
2019-03-28T13:04:15.293Z,35.40
2019-03-28T13:06:55.691Z,36.90
2019-03-28T13:09:35.864Z,37.20
2019-03-28T13:12:17.589Z,36.20
2019-03-28T13:14:57.550Z,35.40
2019-03-28T13:17:37.944Z,33.90
2019-03-28T13:20:18.028Z,34.30
2019-03-28T13:22:58.131Z,34.60
2019-03-28T13:25:37.978Z,36.30
2019-03-28T13:28:18.017Z,39.70
2019-03-28T13:30:58.185Z,39.60
2019-03-28T13:33:38.180Z,36.50
2019-03-28T13:36:18.470Z,34.70
2019-03-28T13:38:58.332Z,34.70
2019-03-28T13:41:38.571Z,34.80
2019-03-28T13:44:18.868Z,33.80
2019-03-28T13:46:58.654Z,32.80
2019-03-28T13:49:39.381Z,33.70
2019-03-28T13:52:19.414Z,32.30
2019-03-28T13:54:59.219Z,33.10
2019-03-28T13:57:43.233Z,33.00
2019-03-28T14:00:22.261Z,31.90
2019-03-28T14:03:01.953Z,34.10
2019-03-28T14:05:41.988Z,36.50
2019-03-28T14:08:22.203Z,36.50
2019-03-28T14:11:03.482Z,35.20
2019-03-28T14:13:31.553Z,35.20
2019-03-28T14:16:18.740Z,34.90
2019-03-28T14:18:58.381Z,36.70
2019-03-28T14:21:38.450Z,36.50
2019-03-28T14:24:18.570Z,34.70
2019-03-28T14:26:58.448Z,32.70
2019-03-28T14:29:38.617Z,31.60
2019-03-28T14:32:18.486Z,31.60
2019-03-28T14:34:58.745Z,30.80
2019-03-28T14:37:41.024Z,32.60
2019-03-28T14:40:20.955Z,34.90
2019-03-28T14:43:01.835Z,34.40
2019-03-28T14:45:43.197Z,34.60
2019-03-28T14:48:23.498Z,37.50
2019-03-28T14:51:03.161Z,37.20
2019-03-28T14:53:43.416Z,37.80
2019-03-28T14:56:23.615Z,38.80
2019-03-28T14:59:03.517Z,39.70
2019-03-28T15:01:43.345Z,39.30
2019-03-28T15:04:23.562Z,38.80
2019-03-28T15:07:03.064Z,38.70
2019-03-28T15:09:44.017Z,40.50
2019-03-28T15:12:24.320Z,42.30
2019-03-28T15:15:04.351Z,43.80
2019-03-28T15:17:45.119Z,44.20
2019-03-28T15:20:27.478Z,46.10
2019-03-28T15:23:07.700Z,48.10
2019-03-28T15:25:47.720Z,49.70
2019-03-28T15:28:27.669Z,50.30
2019-03-28T15:31:07.930Z,51.00
2019-03-28T15:33:47.763Z,52.10
2019-03-28T15:36:27.776Z,52.40
2019-03-28T15:39:08.111Z,53.20
2019-03-28T15:41:49.681Z,54.30
2019-03-28T15:44:30.501Z,53.90
2019-03-28T15:47:09.805Z,54.20
2019-03-28T15:49:50.415Z,54.40
2019-03-28T15:52:30.194Z,54.60
2019-03-28T15:55:10.581Z,53.90
2019-03-28T15:57:50.820Z,53.50
2019-03-28T16:00:31.059Z,54.50
2019-03-28T16:03:10.945Z,54.30
2019-03-28T16:05:58.237Z,54.60
2019-03-28T16:08:32.969Z,54.50
2019-03-28T16:11:13.198Z,54.40
2019-03-28T16:13:53.458Z,53.90
2019-03-28T16:16:33.237Z,54.60
2019-03-28T16:19:13.297Z,55.00
2019-03-28T16:21:53.225Z,55.40
2019-03-28T16:24:33.282Z,55.60
2019-03-28T16:27:13.406Z,55.20
2019-03-28T16:29:54.430Z,54.90
2019-03-28T16:32:34.339Z,55.40
2019-03-28T16:35:14.524Z,56.40
2019-03-28T16:37:54.356Z,57.20
2019-03-28T16:40:34.390Z,56.70
2019-03-28T16:43:14.760Z,57.20
2019-03-28T16:45:54.888Z,57.80
2019-03-28T16:48:34.730Z,57.10
2019-03-28T16:51:17.395Z,55.50
2019-03-28T16:53:56.743Z,54.40
2019-03-28T16:56:36.673Z,53.10
2019-03-28T16:59:15.175Z,53.20
2019-03-28T17:02:02.325Z,53.40
2019-03-28T17:04:42.679Z,53.90
2019-03-28T17:07:26.051Z,53.50
2019-03-28T17:10:05.771Z,54.20
2019-03-28T17:12:45.388Z,54.40
2019-03-28T17:15:25.933Z,54.90
2019-03-28T17:18:05.674Z,55.60
2019-03-28T17:20:46.178Z,57.40
2019-03-28T17:23:26.370Z,58.60
2019-03-28T17:26:06.196Z,60.00
2019-03-28T17:28:46.421Z,61.20
2019-03-28T17:31:26.815Z,61.50
2019-03-28T17:36:46.226Z,63.20
2019-03-28T17:39:27.435Z,63.50
2019-03-28T17:42:07.727Z,63.80
2019-03-28T17:44:47.347Z,64.10
2019-03-28T17:47:27.315Z,64.60
2019-03-28T17:50:07.381Z,65.60
2019-03-28T17:52:47.243Z,65.50
2019-03-28T17:55:27.374Z,65.30
2019-03-28T17:58:07.171Z,65.90
2019-03-28T18:00:47.366Z,66.20
2019-03-28T18:03:31.461Z,66.50
2019-03-28T18:06:09.397Z,66.50
2019-03-28T18:08:49.411Z,66.20
2019-03-28T18:11:29.505Z,66.70
2019-03-28T18:14:09.916Z,66.50
2019-03-28T18:16:49.877Z,66.60
2019-03-28T18:19:29.771Z,66.90
2019-03-28T18:22:09.847Z,67.10
2019-03-28T18:24:49.951Z,67.60
2019-03-28T18:27:30.369Z,67.60
2019-03-28T18:30:10.821Z,67.60
2019-03-28T18:32:51.095Z,67.90
2019-03-28T18:35:31.180Z,67.50
2019-03-28T18:38:11.384Z,67.80
2019-03-28T18:40:51.335Z,68.10
2019-03-28T18:43:31.807Z,68.00
2019-03-28T18:46:14.735Z,68.00
2019-03-28T18:48:55.130Z,68.40
2019-03-28T18:51:34.946Z,68.30
2019-03-28T18:54:15.080Z,68.70
2019-03-28T18:56:55.406Z,68.80
2019-03-28T18:59:35.456Z,69.10
2019-03-28T19:02:15.201Z,69.40
2019-03-28T19:04:55.921Z,69.80
2019-03-28T19:07:36.701Z,69.40
2019-03-28T19:10:18.069Z,69.50
2019-03-28T19:12:59.073Z,69.40
2019-03-28T19:15:38.896Z,69.80
2019-03-28T19:18:19.112Z,69.90
2019-03-28T19:20:59.282Z,69.90
2019-03-28T19:23:39.105Z,70.20
2019-03-28T19:26:19.172Z,70.40
2019-03-28T19:29:00.132Z,70.50
2019-03-28T19:31:40.535Z,70.60
2019-03-28T19:34:21.210Z,70.90
2019-03-28T19:37:00.517Z,71.20
2019-03-28T19:39:40.802Z,71.10
2019-03-28T19:42:22.604Z,71.40
2019-03-28T19:45:03.450Z,71.70
2019-03-28T19:50:31.099Z,71.80
2019-03-28T19:53:11.857Z,72.20
2019-03-28T19:55:52.419Z,71.90
2019-03-28T19:58:34.976Z,71.90
2019-03-28T20:01:14.217Z,72.00
2019-03-28T20:03:55.093Z,72.10
2019-03-28T20:06:35.669Z,72.70
2019-03-28T20:09:16.756Z,73.40
2019-03-28T20:12:02.843Z,73.60
2019-03-28T20:14:47.085Z,74.60
2019-03-28T20:17:27.779Z,75.00
2019-03-28T20:20:07.619Z,75.80
2019-03-28T20:22:47.942Z,76.40
2019-03-28T20:25:27.739Z,77.00
2019-03-28T20:28:07.894Z,76.90
2019-03-28T20:30:48.087Z,77.30
2019-03-28T20:33:27.987Z,77.30
2019-03-28T20:36:35.438Z,77.50
2019-03-28T20:39:03.302Z,77.70
2019-03-28T20:41:32.858Z,78.00
2019-03-28T20:44:12.467Z,78.20
2019-03-28T20:49:32.511Z,78.90
2019-03-28T20:52:12.837Z,79.40
2019-03-28T20:54:52.857Z,79.30
2019-03-28T20:57:32.503Z,79.70
2019-03-28T21:00:13.237Z,79.60
2019-03-28T21:02:53.475Z,79.70
2019-03-28T21:05:33.519Z,79.60
2019-03-28T21:08:13.685Z,79.70
2019-03-28T21:10:53.483Z,79.90
2019-03-28T21:13:33.924Z,80.00
2019-03-28T21:16:13.576Z,80.10
2019-03-28T21:18:55.652Z,80.20
2019-03-28T21:21:35.412Z,80.20
2019-03-28T21:24:15.506Z,80.40
2019-03-28T21:26:55.487Z,80.70
2019-03-28T21:29:47.972Z,80.80
2019-03-28T21:32:15.323Z,80.70
2019-03-28T21:35:02.242Z,80.70
2019-03-28T21:37:42.481Z,80.90
2019-03-28T21:40:24.744Z,81.20
2019-03-28T21:43:04.891Z,81.20
2019-03-28T21:45:44.808Z,81.30
2019-03-28T21:48:24.500Z,81.60
2019-03-28T21:51:02.484Z,81.60
2019-03-28T21:56:44.300Z,82.30
2019-03-28T21:59:24.542Z,82.40
2019-03-28T22:02:04.200Z,82.60
2019-03-28T22:04:44.389Z,83.10
2019-03-28T22:07:25.416Z,82.80
2019-03-28T22:10:08.449Z,82.80
2019-03-28T22:12:47.496Z,82.90
2019-03-28T22:15:27.847Z,83.30
2019-03-28T22:18:07.982Z,83.70
2019-03-28T22:20:48.026Z,83.70
2019-03-28T22:23:27.862Z,84.20
2019-03-28T22:26:08.175Z,84.20
2019-03-28T22:28:48.077Z,84.50
2019-03-28T22:31:28.017Z,84.50
2019-03-28T22:34:08.175Z,84.60
2019-03-28T22:36:57.303Z,85.20
2019-03-28T22:39:31.220Z,84.90
2019-03-28T22:42:11.372Z,85.00
2019-03-28T22:44:51.492Z,85.30
2019-03-28T22:47:34.817Z,85.20
2019-03-28T22:50:13.196Z,85.40
2019-03-28T22:52:53.497Z,85.50
2019-03-28T22:55:33.563Z,85.50
2019-03-28T22:58:13.905Z,85.60
2019-03-28T23:00:54.665Z,85.50
2019-03-28T23:03:34.783Z,85.80
2019-03-28T23:06:14.215Z,85.70
2019-03-28T23:08:54.509Z,86.00
2019-03-28T23:11:34.586Z,86.00
2019-03-28T23:14:14.509Z,86.20
2019-03-28T23:16:55.069Z,86.60
2019-03-28T23:19:35.657Z,86.70
2019-03-28T23:22:15.742Z,87.00
2019-03-28T23:24:55.589Z,86.40
2019-03-28T23:27:35.708Z,86.50
2019-03-28T23:30:15.853Z,87.00
2019-03-28T23:32:55.951Z,87.60
2019-03-28T23:35:36.025Z,88.20
2019-03-28T23:38:16.211Z,88.10
2019-03-28T23:40:56.511Z,88.00
2019-03-28T23:43:37.288Z,88.40
2019-03-28T23:46:17.800Z,88.70
2019-03-28T23:48:57.593Z,88.90
2019-03-28T23:51:37.949Z,88.70
2019-03-28T23:54:17.931Z,88.80
2019-03-28T23:56:57.925Z,88.50
2019-03-28T23:59:37.834Z,89.10
